sensor_id;sensor_type;location;lat;lon;timestamp;P1;durP1;ratioP1;P2;durP2;ratioP2
74821;SDS011;63353;48.702;8.884;2023-09-08T00:01:37;1999.90;;;999.90;;
74821;SDS011;63353;48.702;8.884;2023-09-08T00:04:03;1999.90;;;999.90;;
74821;SDS011;63353;48.702;8.884;2023-09-08T00:06:29;1999.90;;;999.90;;
74821;SDS011;63353;48.702;8.884;2023-09-08T00:08:54;1999.90;;;999.90;;
74821;SDS011;63353;48.702;8.884;2023-09-08T00:11:20;1999.90;;;999.90;;
74821;SDS011;63353;48.702;8.884;2023-09-08T00:13:46;1999.90;;;999.90;;
74821;SDS011;63353;48.702;8.884;2023-09-08T00:16:12;1999.90;;;999.90;;
74821;SDS011;63353;48.702;8.884;2023-09-08T00:18:37;1999.90;;;999.90;;
74821;SDS011;63353;48.702;8.884;2023-09-08T00:21:03;1999.90;;;999.90;;
74821;SDS011;63353;48.702;8.884;2023-09-08T00:23:28;1999.90;;;999.90;;
74821;SDS011;63353;48.702;8.884;2023-09-08T00:25:54;1999.90;;;999.90;;
74821;SDS011;63353;48.702;8.884;2023-09-08T00:28:20;1999.90;;;999.90;;
74821;SDS011;63353;48.702;8.884;2023-09-08T00:30:45;1999.90;;;999.90;;
74821;SDS011;63353;48.702;8.884;2023-09-08T00:33:11;1999.90;;;999.90;;
74821;SDS011;63353;48.702;8.884;2023-09-08T00:35:38;1999.90;;;999.90;;
74821;SDS011;63353;48.702;8.884;2023-09-08T00:38:05;1999.90;;;999.90;;
74821;SDS011;63353;48.702;8.884;2023-09-08T00:40:30;1999.90;;;999.90;;
74821;SDS011;63353;48.702;8.884;2023-09-08T00:42:57;1999.90;;;999.90;;
74821;SDS011;63353;48.702;8.884;2023-09-08T00:45:23;1999.90;;;999.90;;
74821;SDS011;63353;48.702;8.884;2023-09-08T00:47:51;1999.90;;;999.90;;
74821;SDS011;63353;48.702;8.884;2023-09-08T00:50:17;1999.90;;;999.90;;
74821;SDS011;63353;48.702;8.884;2023-09-08T00:52:42;1999.90;;;999.90;;
74821;SDS011;63353;48.702;8.884;2023-09-08T00:55:08;1999.90;;;999.90;;
74821;SDS011;63353;48.702;8.884;2023-09-08T00:57:34;1999.90;;;999.90;;
74821;SDS011;63353;48.702;8.884;2023-09-08T00:59:59;1999.90;;;999.90;;
74821;SDS011;63353;48.702;8.884;2023-09-08T01:02:25;1999.90;;;999.90;;
74821;SDS011;63353;48.702;8.884;2023-09-08T01:04:52;1999.90;;;999.90;;
74821;SDS011;63353;48.702;8.884;2023-09-08T01:07:18;1999.90;;;999.90;;
74821;SDS011;63353;48.702;8.884;2023-09-08T01:09:45;1999.90;;;999.90;;
74821;SDS011;63353;48.702;8.884;2023-09-08T01:12:12;1999.90;;;999.90;;
74821;SDS011;63353;48.702;8.884;2023-09-08T01:14:38;1999.90;;;999.90;;
74821;SDS011;63353;48.702;8.884;2023-09-08T01:17:03;1999.90;;;999.90;;
74821;SDS011;63353;48.702;8.884;2023-09-08T01:19:29;1999.90;;;999.90;;
74821;SDS011;63353;48.702;8.884;2023-09-08T01:22:02;1999.90;;;999.90;;
74821;SDS011;63353;48.702;8.884;2023-09-08T01:25:05;1999.90;;;999.90;;
74821;SDS011;63353;48.702;8.884;2023-09-08T01:27:48;1999.90;;;999.90;;
74821;SDS011;63353;48.702;8.884;2023-09-08T01:30:16;1999.90;;;999.90;;
74821;SDS011;63353;48.702;8.884;2023-09-08T01:32:43;1999.90;;;999.90;;
74821;SDS011;63353;48.702;8.884;2023-09-08T01:35:09;1999.90;;;999.90;;
74821;SDS011;63353;48.702;8.884;2023-09-08T01:37:38;1999.90;;;999.90;;
74821;SDS011;63353;48.702;8.884;2023-09-08T01:40:06;1999.90;;;999.90;;
74821;SDS011;63353;48.702;8.884;2023-09-08T01:42:32;1999.90;;;999.90;;
74821;SDS011;63353;48.702;8.884;2023-09-08T01:44:57;1999.90;;;999.90;;
74821;SDS011;63353;48.702;8.884;2023-09-08T01:47:23;1999.90;;;999.90;;
74821;SDS011;63353;48.702;8.884;2023-09-08T01:49:49;1999.90;;;999.90;;
74821;SDS011;63353;48.702;8.884;2023-09-08T01:52:14;1999.90;;;999.90;;
74821;SDS011;63353;48.702;8.884;2023-09-08T01:54:40;1999.90;;;999.90;;
74821;SDS011;63353;48.702;8.884;2023-09-08T01:57:06;1999.90;;;999.90;;
74821;SDS011;63353;48.702;8.884;2023-09-08T01:59:31;1999.90;;;999.90;;
74821;SDS011;63353;48.702;8.884;2023-09-08T02:01:57;1999.90;;;999.90;;
74821;SDS011;63353;48.702;8.884;2023-09-08T02:04:23;1999.90;;;999.90;;
74821;SDS011;63353;48.702;8.884;2023-09-08T02:06:48;1999.90;;;999.90;;
74821;SDS011;63353;48.702;8.884;2023-09-08T02:09:14;1999.90;;;999.90;;
74821;SDS011;63353;48.702;8.884;2023-09-08T02:11:40;1999.90;;;999.90;;
74821;SDS011;63353;48.702;8.884;2023-09-08T02:14:07;1999.90;;;999.90;;
74821;SDS011;63353;48.702;8.884;2023-09-08T02:16:33;1999.90;;;999.90;;
74821;SDS011;63353;48.702;8.884;2023-09-08T02:18:59;1999.90;;;999.90;;
74821;SDS011;63353;48.702;8.884;2023-09-08T02:21:25;1999.90;;;999.90;;
74821;SDS011;63353;48.702;8.884;2023-09-08T02:23:50;1999.90;;;999.90;;
74821;SDS011;63353;48.702;8.884;2023-09-08T02:26:16;1999.90;;;999.90;;
74821;SDS011;63353;48.702;8.884;2023-09-08T02:28:41;1999.90;;;999.90;;
74821;SDS011;63353;48.702;8.884;2023-09-08T02:31:07;1999.90;;;999.90;;
74821;SDS011;63353;48.702;8.884;2023-09-08T02:33:33;1999.90;;;999.90;;
74821;SDS011;63353;48.702;8.884;2023-09-08T02:36:05;1999.90;;;999.90;;
74821;SDS011;63353;48.702;8.884;2023-09-08T02:38:31;1999.90;;;999.90;;
74821;SDS011;63353;48.702;8.884;2023-09-08T02:40:57;1999.90;;;999.90;;
74821;SDS011;63353;48.702;8.884;2023-09-08T02:43:23;1999.90;;;999.90;;
74821;SDS011;63353;48.702;8.884;2023-09-08T02:45:49;1999.90;;;999.90;;
74821;SDS011;63353;48.702;8.884;2023-09-08T02:48:15;1999.90;;;999.90;;
74821;SDS011;63353;48.702;8.884;2023-09-08T02:50:41;1999.90;;;999.90;;
74821;SDS011;63353;48.702;8.884;2023-09-08T02:53:08;1999.90;;;999.90;;
74821;SDS011;63353;48.702;8.884;2023-09-08T02:55:34;1999.90;;;999.90;;
74821;SDS011;63353;48.702;8.884;2023-09-08T02:57:59;1999.90;;;999.90;;
74821;SDS011;63353;48.702;8.884;2023-09-08T03:00:25;1999.90;;;999.90;;
74821;SDS011;63353;48.702;8.884;2023-09-08T03:02:50;1999.90;;;999.90;;
74821;SDS011;63353;48.702;8.884;2023-09-08T03:05:16;1999.90;;;999.90;;
74821;SDS011;63353;48.702;8.884;2023-09-08T03:07:42;1999.90;;;999.90;;
74821;SDS011;63353;48.702;8.884;2023-09-08T03:10:08;1999.90;;;999.90;;
74821;SDS011;63353;48.702;8.884;2023-09-08T03:12:34;1999.90;;;999.90;;
74821;SDS011;63353;48.702;8.884;2023-09-08T03:15:01;1999.90;;;999.90;;
74821;SDS011;63353;48.702;8.884;2023-09-08T03:17:27;1999.90;;;999.90;;
74821;SDS011;63353;48.702;8.884;2023-09-08T03:19:53;1999.90;;;999.90;;
74821;SDS011;63353;48.702;8.884;2023-09-08T03:22:19;1999.90;;;999.90;;
74821;SDS011;63353;48.702;8.884;2023-09-08T03:24:44;1999.90;;;999.90;;
74821;SDS011;63353;48.702;8.884;2023-09-08T03:27:10;1999.90;;;999.90;;
74821;SDS011;63353;48.702;8.884;2023-09-08T03:29:36;1999.90;;;999.90;;
74821;SDS011;63353;48.702;8.884;2023-09-08T03:32:01;1999.90;;;999.90;;
74821;SDS011;63353;48.702;8.884;2023-09-08T03:34:27;1999.90;;;999.90;;
74821;SDS011;63353;48.702;8.884;2023-09-08T03:36:53;1999.90;;;999.90;;
74821;SDS011;63353;48.702;8.884;2023-09-08T03:39:19;1999.90;;;999.90;;
74821;SDS011;63353;48.702;8.884;2023-09-08T03:41:44;1999.90;;;999.90;;
74821;SDS011;63353;48.702;8.884;2023-09-08T03:44:11;1999.90;;;999.90;;
74821;SDS011;63353;48.702;8.884;2023-09-08T03:46:36;1999.90;;;999.90;;
74821;SDS011;63353;48.702;8.884;2023-09-08T03:49:02;1999.90;;;999.90;;
74821;SDS011;63353;48.702;8.884;2023-09-08T03:51:28;1999.90;;;999.90;;
74821;SDS011;63353;48.702;8.884;2023-09-08T03:53:54;1999.90;;;999.90;;
74821;SDS011;63353;48.702;8.884;2023-09-08T03:56:20;1999.90;;;999.90;;
74821;SDS011;63353;48.702;8.884;2023-09-08T03:58:45;1999.90;;;999.90;;
74821;SDS011;63353;48.702;8.884;2023-09-08T04:01:12;1999.90;;;999.90;;
74821;SDS011;63353;48.702;8.884;2023-09-08T04:03:37;1999.90;;;999.90;;
74821;SDS011;63353;48.702;8.884;2023-09-08T04:06:03;1999.90;;;999.90;;
74821;SDS011;63353;48.702;8.884;2023-09-08T04:08:29;1999.90;;;999.90;;
74821;SDS011;63353;48.702;8.884;2023-09-08T04:10:54;1999.90;;;999.90;;
74821;SDS011;63353;48.702;8.884;2023-09-08T04:13:20;1999.90;;;999.90;;
74821;SDS011;63353;48.702;8.884;2023-09-08T04:15:46;1999.90;;;999.90;;
74821;SDS011;63353;48.702;8.884;2023-09-08T04:18:11;1999.90;;;999.90;;
74821;SDS011;63353;48.702;8.884;2023-09-08T04:20:37;1999.90;;;999.90;;
74821;SDS011;63353;48.702;8.884;2023-09-08T04:23:03;1999.90;;;999.90;;
74821;SDS011;63353;48.702;8.884;2023-09-08T04:25:28;1999.90;;;999.90;;
74821;SDS011;63353;48.702;8.884;2023-09-08T04:27:54;1999.90;;;999.90;;
74821;SDS011;63353;48.702;8.884;2023-09-08T04:30:20;1999.90;;;999.90;;
74821;SDS011;63353;48.702;8.884;2023-09-08T04:32:46;1999.90;;;999.90;;
74821;SDS011;63353;48.702;8.884;2023-09-08T04:35:12;1999.90;;;999.90;;
74821;SDS011;63353;48.702;8.884;2023-09-08T04:37:37;1999.90;;;999.90;;
74821;SDS011;63353;48.702;8.884;2023-09-08T04:40:04;1999.90;;;999.90;;
74821;SDS011;63353;48.702;8.884;2023-09-08T04:42:31;1999.90;;;999.90;;
74821;SDS011;63353;48.702;8.884;2023-09-08T04:44:56;1999.90;;;999.90;;
74821;SDS011;63353;48.702;8.884;2023-09-08T04:47:22;1999.90;;;999.90;;
74821;SDS011;63353;48.702;8.884;2023-09-08T04:49:47;1999.90;;;999.90;;
74821;SDS011;63353;48.702;8.884;2023-09-08T04:52:13;1999.90;;;999.90;;
74821;SDS011;63353;48.702;8.884;2023-09-08T04:54:39;1999.90;;;999.90;;
74821;SDS011;63353;48.702;8.884;2023-09-08T04:57:05;1999.90;;;999.90;;
74821;SDS011;63353;48.702;8.884;2023-09-08T04:59:31;1999.90;;;999.90;;
74821;SDS011;63353;48.702;8.884;2023-09-08T05:01:57;1999.90;;;999.90;;
74821;SDS011;63353;48.702;8.884;2023-09-08T05:04:23;1999.90;;;999.90;;
74821;SDS011;63353;48.702;8.884;2023-09-08T05:06:49;1999.90;;;999.90;;
74821;SDS011;63353;48.702;8.884;2023-09-08T05:09:15;1999.90;;;999.90;;
74821;SDS011;63353;48.702;8.884;2023-09-08T05:11:40;1999.90;;;999.90;;
74821;SDS011;63353;48.702;8.884;2023-09-08T05:14:06;1999.90;;;999.90;;
74821;SDS011;63353;48.702;8.884;2023-09-08T05:16:32;1999.90;;;999.90;;
74821;SDS011;63353;48.702;8.884;2023-09-08T05:19:20;1999.90;;;999.90;;
74821;SDS011;63353;48.702;8.884;2023-09-08T05:21:47;1999.90;;;999.90;;
74821;SDS011;63353;48.702;8.884;2023-09-08T05:24:14;1999.90;;;999.90;;
74821;SDS011;63353;48.702;8.884;2023-09-08T05:26:41;1999.90;;;999.90;;
74821;SDS011;63353;48.702;8.884;2023-09-08T05:29:07;1999.90;;;999.90;;
74821;SDS011;63353;48.702;8.884;2023-09-08T05:31:33;1999.90;;;999.90;;
74821;SDS011;63353;48.702;8.884;2023-09-08T05:33:58;1999.90;;;999.90;;
74821;SDS011;63353;48.702;8.884;2023-09-08T05:36:24;1999.90;;;999.90;;
74821;SDS011;63353;48.702;8.884;2023-09-08T05:38:50;1999.90;;;999.90;;
74821;SDS011;63353;48.702;8.884;2023-09-08T05:41:15;1999.90;;;999.90;;
74821;SDS011;63353;48.702;8.884;2023-09-08T05:43:41;1999.90;;;999.90;;
74821;SDS011;63353;48.702;8.884;2023-09-08T05:46:06;1999.90;;;999.90;;
74821;SDS011;63353;48.702;8.884;2023-09-08T05:48:32;1999.90;;;999.90;;
74821;SDS011;63353;48.702;8.884;2023-09-08T05:50:58;1999.90;;;999.90;;
74821;SDS011;63353;48.702;8.884;2023-09-08T05:53:24;1999.90;;;999.90;;
74821;SDS011;63353;48.702;8.884;2023-09-08T05:55:49;1999.90;;;999.90;;
74821;SDS011;63353;48.702;8.884;2023-09-08T05:58:15;1999.90;;;999.90;;
74821;SDS011;63353;48.702;8.884;2023-09-08T06:00:41;1999.90;;;999.90;;
74821;SDS011;63353;48.702;8.884;2023-09-08T06:03:06;1999.90;;;999.90;;
74821;SDS011;63353;48.702;8.884;2023-09-08T06:05:32;1999.90;;;999.90;;
74821;SDS011;63353;48.702;8.884;2023-09-08T06:07:58;1999.90;;;999.90;;
74821;SDS011;63353;48.702;8.884;2023-09-08T06:10:23;1999.90;;;999.90;;
74821;SDS011;63353;48.702;8.884;2023-09-08T06:12:49;1999.90;;;999.90;;
74821;SDS011;63353;48.702;8.884;2023-09-08T06:15:15;1999.90;;;999.90;;
74821;SDS011;63353;48.702;8.884;2023-09-08T06:17:42;1999.90;;;999.90;;
74821;SDS011;63353;48.702;8.884;2023-09-08T06:20:08;1999.90;;;999.90;;
74821;SDS011;63353;48.702;8.884;2023-09-08T06:22:34;1999.90;;;999.90;;
74821;SDS011;63353;48.702;8.884;2023-09-08T06:25:00;1999.90;;;999.90;;
74821;SDS011;63353;48.702;8.884;2023-09-08T06:27:25;1999.90;;;999.90;;
74821;SDS011;63353;48.702;8.884;2023-09-08T06:29:51;1999.90;;;999.90;;
74821;SDS011;63353;48.702;8.884;2023-09-08T06:32:16;1999.90;;;999.90;;
74821;SDS011;63353;48.702;8.884;2023-09-08T06:34:42;1999.90;;;999.90;;
74821;SDS011;63353;48.702;8.884;2023-09-08T06:37:08;1999.90;;;999.90;;
74821;SDS011;63353;48.702;8.884;2023-09-08T06:39:34;1999.90;;;999.90;;
74821;SDS011;63353;48.702;8.884;2023-09-08T06:41:59;1999.90;;;999.90;;
74821;SDS011;63353;48.702;8.884;2023-09-08T06:44:25;1999.90;;;999.90;;
74821;SDS011;63353;48.702;8.884;2023-09-08T06:46:51;1999.90;;;999.90;;
74821;SDS011;63353;48.702;8.884;2023-09-08T06:49:16;1999.90;;;999.90;;
74821;SDS011;63353;48.702;8.884;2023-09-08T06:51:42;1999.90;;;999.90;;
74821;SDS011;63353;48.702;8.884;2023-09-08T06:54:08;1999.90;;;999.90;;
74821;SDS011;63353;48.702;8.884;2023-09-08T06:56:35;1999.90;;;999.90;;
74821;SDS011;63353;48.702;8.884;2023-09-08T06:59:01;1999.90;;;999.90;;
74821;SDS011;63353;48.702;8.884;2023-09-08T07:01:27;1999.90;;;999.90;;
74821;SDS011;63353;48.702;8.884;2023-09-08T07:03:53;1999.90;;;999.90;;
74821;SDS011;63353;48.702;8.884;2023-09-08T07:06:18;1999.90;;;999.90;;
74821;SDS011;63353;48.702;8.884;2023-09-08T07:08:47;1999.90;;;999.90;;
74821;SDS011;63353;48.702;8.884;2023-09-08T07:11:15;1999.90;;;999.90;;
74821;SDS011;63353;48.702;8.884;2023-09-08T07:13:41;1999.90;;;999.90;;
74821;SDS011;63353;48.702;8.884;2023-09-08T07:16:06;1999.90;;;999.90;;
74821;SDS011;63353;48.702;8.884;2023-09-08T07:18:32;1999.90;;;999.90;;
74821;SDS011;63353;48.702;8.884;2023-09-08T07:21:01;1999.90;;;999.90;;
74821;SDS011;63353;48.702;8.884;2023-09-08T07:23:27;1999.90;;;999.90;;
74821;SDS011;63353;48.702;8.884;2023-09-08T07:25:59;1999.90;;;999.90;;
74821;SDS011;63353;48.702;8.884;2023-09-08T07:28:27;1999.90;;;999.90;;
74821;SDS011;63353;48.702;8.884;2023-09-08T07:30:53;1999.90;;;999.90;;
74821;SDS011;63353;48.702;8.884;2023-09-08T07:33:18;1999.90;;;999.90;;
74821;SDS011;63353;48.702;8.884;2023-09-08T07:35:44;1999.90;;;999.90;;
74821;SDS011;63353;48.702;8.884;2023-09-08T07:38:18;1999.90;;;999.90;;
74821;SDS011;63353;48.702;8.884;2023-09-08T07:40:44;1999.90;;;999.90;;
74821;SDS011;63353;48.702;8.884;2023-09-08T07:43:16;1999.90;;;999.90;;
74821;SDS011;63353;48.702;8.884;2023-09-08T07:45:41;1999.90;;;999.90;;
74821;SDS011;63353;48.702;8.884;2023-09-08T07:48:13;1999.90;;;999.90;;
74821;SDS011;63353;48.702;8.884;2023-09-08T07:50:39;1999.90;;;999.90;;
74821;SDS011;63353;48.702;8.884;2023-09-08T07:53:04;1999.90;;;999.90;;
74821;SDS011;63353;48.702;8.884;2023-09-08T07:55:39;1999.90;;;999.90;;
74821;SDS011;63353;48.702;8.884;2023-09-08T07:58:05;1999.90;;;999.90;;
74821;SDS011;63353;48.702;8.884;2023-09-08T08:00:34;1999.90;;;999.90;;
74821;SDS011;63353;48.702;8.884;2023-09-08T08:02:59;1999.90;;;999.90;;
74821;SDS011;63353;48.702;8.884;2023-09-08T08:05:25;1999.90;;;999.90;;
74821;SDS011;63353;48.702;8.884;2023-09-08T08:07:51;1999.90;;;999.90;;
74821;SDS011;63353;48.702;8.884;2023-09-08T08:10:17;1999.90;;;999.90;;
74821;SDS011;63353;48.702;8.884;2023-09-08T08:12:43;1999.90;;;999.90;;
74821;SDS011;63353;48.702;8.884;2023-09-08T08:15:09;1999.90;;;999.90;;
74821;SDS011;63353;48.702;8.884;2023-09-08T08:17:36;1999.90;;;999.90;;
74821;SDS011;63353;48.702;8.884;2023-09-08T08:20:03;1999.90;;;999.90;;
74821;SDS011;63353;48.702;8.884;2023-09-08T08:22:34;1999.90;;;999.90;;
74821;SDS011;63353;48.702;8.884;2023-09-08T08:25:03;1999.90;;;999.90;;
74821;SDS011;63353;48.702;8.884;2023-09-08T08:27:29;1999.90;;;999.90;;
74821;SDS011;63353;48.702;8.884;2023-09-08T08:29:56;1999.90;;;999.90;;
74821;SDS011;63353;48.702;8.884;2023-09-08T08:32:24;1999.90;;;999.90;;
74821;SDS011;63353;48.702;8.884;2023-09-08T08:34:50;1999.90;;;999.90;;
74821;SDS011;63353;48.702;8.884;2023-09-08T08:37:16;1999.90;;;999.90;;
74821;SDS011;63353;48.702;8.884;2023-09-08T08:39:42;1999.90;;;999.90;;
74821;SDS011;63353;48.702;8.884;2023-09-08T08:42:09;721.07;;;660.00;;
74821;SDS011;63353;48.702;8.884;2023-09-08T08:44:36;374.00;;;337.47;;
74821;SDS011;63353;48.702;8.884;2023-09-08T08:47:03;1999.90;;;999.90;;
74821;SDS011;63353;48.702;8.884;2023-09-08T08:49:32;1491.40;;;785.93;;
74821;SDS011;63353;48.702;8.884;2023-09-08T08:51:59;807.73;;;729.93;;
74821;SDS011;63353;48.702;8.884;2023-09-08T08:54:28;720.73;;;674.73;;
74821;SDS011;63353;48.702;8.884;2023-09-08T08:56:54;1925.70;;;999.90;;
74821;SDS011;63353;48.702;8.884;2023-09-08T08:59:21;893.92;;;832.88;;
74821;SDS011;63353;48.702;8.884;2023-09-08T09:01:47;1999.90;;;999.90;;
74821;SDS011;63353;48.702;8.884;2023-09-08T09:04:14;1999.90;;;999.90;;
74821;SDS011;63353;48.702;8.884;2023-09-08T09:06:41;1459.85;;;999.90;;
74821;SDS011;63353;48.702;8.884;2023-09-08T09:09:07;1999.90;;;999.90;;
74821;SDS011;63353;48.702;8.884;2023-09-08T09:11:33;1999.90;;;999.90;;
74821;SDS011;63353;48.702;8.884;2023-09-08T09:13:59;1999.90;;;999.90;;
74821;SDS011;63353;48.702;8.884;2023-09-08T09:16:25;1999.90;;;999.90;;
74821;SDS011;63353;48.702;8.884;2023-09-08T09:18:54;1999.90;;;999.90;;
74821;SDS011;63353;48.702;8.884;2023-09-08T09:21:21;1999.90;;;999.90;;
74821;SDS011;63353;48.702;8.884;2023-09-08T09:23:47;1999.90;;;999.90;;
74821;SDS011;63353;48.702;8.884;2023-09-08T09:26:22;1999.90;;;999.90;;
74821;SDS011;63353;48.702;8.884;2023-09-08T09:28:49;1603.88;;;846.20;;
74821;SDS011;63353;48.702;8.884;2023-09-08T09:31:17;1999.90;;;999.90;;
74821;SDS011;63353;48.702;8.884;2023-09-08T09:33:43;1999.90;;;999.90;;
74821;SDS011;63353;48.702;8.884;2023-09-08T09:36:10;1999.90;;;999.90;;
74821;SDS011;63353;48.702;8.884;2023-09-08T09:38:46;1999.90;;;999.90;;
74821;SDS011;63353;48.702;8.884;2023-09-08T09:41:12;876.72;;;792.25;;
74821;SDS011;63353;48.702;8.884;2023-09-08T09:43:38;640.97;;;578.95;;
74821;SDS011;63353;48.702;8.884;2023-09-08T09:46:06;1999.90;;;999.90;;
74821;SDS011;63353;48.702;8.884;2023-09-08T09:48:33;1046.75;;;950.80;;
74821;SDS011;63353;48.702;8.884;2023-09-08T09:51:14;458.88;;;411.02;;
74821;SDS011;63353;48.702;8.884;2023-09-08T09:53:42;135.45;;;125.63;;
74821;SDS011;63353;48.702;8.884;2023-09-08T09:56:09;1389.90;;;999.90;;
74821;SDS011;63353;48.702;8.884;2023-09-08T09:58:36;527.85;;;491.88;;
74821;SDS011;63353;48.702;8.884;2023-09-08T10:01:02;1056.53;;;964.58;;
74821;SDS011;63353;48.702;8.884;2023-09-08T10:03:29;129.55;;;118.25;;
74821;SDS011;63353;48.702;8.884;2023-09-08T10:05:56;1081.43;;;988.50;;
74821;SDS011;63353;48.702;8.884;2023-09-08T10:08:28;155.02;;;142.85;;
74821;SDS011;63353;48.702;8.884;2023-09-08T10:10:57;637.55;;;595.92;;
74821;SDS011;63353;48.702;8.884;2023-09-08T10:13:26;57.20;;;54.20;;
74821;SDS011;63353;48.702;8.884;2023-09-08T10:15:55;13.70;;;12.82;;
74821;SDS011;63353;48.702;8.884;2023-09-08T10:18:23;31.55;;;30.08;;
74821;SDS011;63353;48.702;8.884;2023-09-08T10:20:51;101.85;;;97.45;;
74821;SDS011;63353;48.702;8.884;2023-09-08T10:23:29;19.58;;;18.40;;
74821;SDS011;63353;48.702;8.884;2023-09-08T10:26:02;48.85;;;46.53;;
74821;SDS011;63353;48.702;8.884;2023-09-08T10:28:31;84.05;;;80.50;;
74821;SDS011;63353;48.702;8.884;2023-09-08T10:30:58;153.45;;;147.15;;
74821;SDS011;63353;48.702;8.884;2023-09-08T10:33:27;89.88;;;86.03;;
74821;SDS011;63353;48.702;8.884;2023-09-08T10:35:54;108.95;;;104.22;;
74821;SDS011;63353;48.702;8.884;2023-09-08T10:38:22;106.95;;;102.45;;
74821;SDS011;63353;48.702;8.884;2023-09-08T10:41:25;42.53;;;40.63;;
74821;SDS011;63353;48.702;8.884;2023-09-08T10:43:39;42.33;;;40.33;;
74821;SDS011;63353;48.702;8.884;2023-09-08T10:46:09;30.70;;;29.13;;
74821;SDS011;63353;48.702;8.884;2023-09-08T10:48:43;29.27;;;27.77;;
74821;SDS011;63353;48.702;8.884;2023-09-08T10:51:13;193.10;;;185.43;;
74821;SDS011;63353;48.702;8.884;2023-09-08T10:53:39;59.33;;;56.83;;
74821;SDS011;63353;48.702;8.884;2023-09-08T10:56:05;39.03;;;37.25;;
74821;SDS011;63353;48.702;8.884;2023-09-08T10:58:32;42.72;;;40.78;;
74821;SDS011;63353;48.702;8.884;2023-09-08T11:01:02;25.70;;;24.45;;
74821;SDS011;63353;48.702;8.884;2023-09-08T11:06:07;38.03;;;36.17;;
74821;SDS011;63353;48.702;8.884;2023-09-08T11:08:33;23.67;;;22.52;;
74821;SDS011;63353;48.702;8.884;2023-09-08T11:11:00;37.33;;;35.53;;
74821;SDS011;63353;48.702;8.884;2023-09-08T11:13:27;27.38;;;25.98;;
74821;SDS011;63353;48.702;8.884;2023-09-08T11:15:55;124.35;;;119.32;;
74821;SDS011;63353;48.702;8.884;2023-09-08T11:18:27;38.47;;;36.65;;
74821;SDS011;63353;48.702;8.884;2023-09-08T11:20:53;72.15;;;69.03;;
74821;SDS011;63353;48.702;8.884;2023-09-08T11:23:20;72.78;;;69.68;;
74821;SDS011;63353;48.702;8.884;2023-09-08T11:25:46;71.35;;;68.30;;
74821;SDS011;63353;48.702;8.884;2023-09-08T11:28:13;116.80;;;111.88;;
74821;SDS011;63353;48.702;8.884;2023-09-08T11:30:39;36.67;;;35.03;;
74821;SDS011;63353;48.702;8.884;2023-09-08T11:33:13;46.53;;;44.33;;
74821;SDS011;63353;48.702;8.884;2023-09-08T11:35:40;48.83;;;46.70;;
74821;SDS011;63353;48.702;8.884;2023-09-08T11:38:07;55.40;;;52.95;;
74821;SDS011;63353;48.702;8.884;2023-09-08T11:40:35;55.03;;;52.53;;
74821;SDS011;63353;48.702;8.884;2023-09-08T11:43:02;79.93;;;76.40;;
74821;SDS011;63353;48.702;8.884;2023-09-08T11:45:28;29.70;;;28.23;;
74821;SDS011;63353;48.702;8.884;2023-09-08T11:47:55;80.15;;;76.75;;
74821;SDS011;63353;48.702;8.884;2023-09-08T11:50:21;69.55;;;66.55;;
74821;SDS011;63353;48.702;8.884;2023-09-08T11:52:49;65.28;;;62.40;;
74821;SDS011;63353;48.702;8.884;2023-09-08T11:55:16;20.63;;;19.48;;
74821;SDS011;63353;48.702;8.884;2023-09-08T11:57:44;76.70;;;73.47;;
74821;SDS011;63353;48.702;8.884;2023-09-08T12:00:12;115.75;;;110.85;;
74821;SDS011;63353;48.702;8.884;2023-09-08T12:02:42;122.03;;;117.03;;
74821;SDS011;63353;48.702;8.884;2023-09-08T12:05:12;67.25;;;64.22;;
74821;SDS011;63353;48.702;8.884;2023-09-08T12:07:39;72.88;;;69.70;;
74821;SDS011;63353;48.702;8.884;2023-09-08T12:10:11;50.13;;;47.83;;
74821;SDS011;63353;48.702;8.884;2023-09-08T12:15:10;150.15;;;144.13;;
74821;SDS011;63353;48.702;8.884;2023-09-08T12:17:48;151.68;;;145.48;;
74821;SDS011;63353;48.702;8.884;2023-09-08T12:20:14;155.85;;;149.45;;
74821;SDS011;63353;48.702;8.884;2023-09-08T12:22:48;251.07;;;241.20;;
74821;SDS011;63353;48.702;8.884;2023-09-08T12:25:15;222.85;;;214.05;;
74821;SDS011;63353;48.702;8.884;2023-09-08T12:27:41;115.25;;;110.43;;
74821;SDS011;63353;48.702;8.884;2023-09-08T12:30:07;110.97;;;106.25;;
74821;SDS011;63353;48.702;8.884;2023-09-08T12:32:34;28.33;;;26.90;;
74821;SDS011;63353;48.702;8.884;2023-09-08T12:35:02;45.95;;;43.72;;
74821;SDS011;63353;48.702;8.884;2023-09-08T12:37:29;17.13;;;16.13;;
74821;SDS011;63353;48.702;8.884;2023-09-08T12:39:57;17.40;;;16.30;;
74821;SDS011;63353;48.702;8.884;2023-09-08T12:42:25;16.63;;;15.63;;
74821;SDS011;63353;48.702;8.884;2023-09-08T12:44:54;18.95;;;17.85;;
74821;SDS011;63353;48.702;8.884;2023-09-08T12:47:20;20.67;;;19.55;;
74821;SDS011;63353;48.702;8.884;2023-09-08T12:49:46;13.55;;;12.75;;
74821;SDS011;63353;48.702;8.884;2023-09-08T12:52:11;14.32;;;13.43;;
74821;SDS011;63353;48.702;8.884;2023-09-08T12:54:37;14.68;;;13.77;;
74821;SDS011;63353;48.702;8.884;2023-09-08T12:57:03;13.60;;;12.80;;
74821;SDS011;63353;48.702;8.884;2023-09-08T12:59:29;11.93;;;11.13;;
74821;SDS011;63353;48.702;8.884;2023-09-08T13:01:55;27.42;;;26.13;;
74821;SDS011;63353;48.702;8.884;2023-09-08T13:04:21;14.02;;;13.02;;
74821;SDS011;63353;48.702;8.884;2023-09-08T13:06:47;11.63;;;10.88;;
74821;SDS011;63353;48.702;8.884;2023-09-08T13:09:14;14.90;;;14.05;;
74821;SDS011;63353;48.702;8.884;2023-09-08T13:11:40;16.90;;;16.00;;
74821;SDS011;63353;48.702;8.884;2023-09-08T13:14:06;12.15;;;11.35;;
74821;SDS011;63353;48.702;8.884;2023-09-08T13:16:32;12.15;;;11.35;;
74821;SDS011;63353;48.702;8.884;2023-09-08T13:18:58;11.85;;;10.95;;
74821;SDS011;63353;48.702;8.884;2023-09-08T13:21:24;42.55;;;40.65;;
74821;SDS011;63353;48.702;8.884;2023-09-08T13:23:50;53.15;;;50.83;;
74821;SDS011;63353;48.702;8.884;2023-09-08T13:26:15;50.70;;;48.38;;
74821;SDS011;63353;48.702;8.884;2023-09-08T13:28:41;73.75;;;70.50;;
74821;SDS011;63353;48.702;8.884;2023-09-08T13:31:07;72.53;;;69.32;;
74821;SDS011;63353;48.702;8.884;2023-09-08T13:33:32;66.18;;;63.40;;
74821;SDS011;63353;48.702;8.884;2023-09-08T13:35:58;36.67;;;34.92;;
74821;SDS011;63353;48.702;8.884;2023-09-08T13:38:24;72.75;;;69.65;;
74821;SDS011;63353;48.702;8.884;2023-09-08T13:40:49;21.40;;;20.15;;
74821;SDS011;63353;48.702;8.884;2023-09-08T13:43:15;13.43;;;12.43;;
74821;SDS011;63353;48.702;8.884;2023-09-08T13:45:40;26.08;;;24.58;;
74821;SDS011;63353;48.702;8.884;2023-09-08T13:48:07;27.13;;;25.73;;
74821;SDS011;63353;48.702;8.884;2023-09-08T13:50:33;13.48;;;12.43;;
74821;SDS011;63353;48.702;8.884;2023-09-08T13:52:59;18.90;;;17.90;;
74821;SDS011;63353;48.702;8.884;2023-09-08T13:55:25;13.48;;;12.63;;
74821;SDS011;63353;48.702;8.884;2023-09-08T13:57:50;16.98;;;16.00;;